sensor_id;sensor_type;location;lat;lon;timestamp;pressure;altitude;pressure_sealevel;temperature;humidity
73860;BME280;62197;51.632;13.700;2023-05-09T00:00:18;100994.75;;;7.39;88.30
73860;BME280;62197;51.632;13.700;2023-05-09T00:02:44;101003.59;;;7.34;88.62
73860;BME280;62197;51.632;13.700;2023-05-09T00:05:10;101004.88;;;7.32;88.89
73860;BME280;62197;51.632;13.700;2023-05-09T00:07:36;101006.75;;;7.24;89.43
73860;BME280;62197;51.632;13.700;2023-05-09T00:10:01;100996.81;;;7.23;89.54
73860;BME280;62197;51.632;13.700;2023-05-09T00:12:27;100994.28;;;7.28;88.62
73860;BME280;62197;51.632;13.700;2023-05-09T00:14:53;100995.53;;;7.26;88.86
73860;BME280;62197;51.632;13.700;2023-05-09T00:17:21;100974.63;;;7.18;88.34
73860;BME280;62197;51.632;13.700;2023-05-09T00:19:50;100985.84;;;7.23;88.39
73860;BME280;62197;51.632;13.700;2023-05-09T00:22:17;100986.66;;;7.17;88.42
73860;BME280;62197;51.632;13.700;2023-05-09T00:24:45;100992.59;;;7.21;88.64
73860;BME280;62197;51.632;13.700;2023-05-09T00:27:11;100983.28;;;7.15;88.07
73860;BME280;62197;51.632;13.700;2023-05-09T00:29:36;100976.72;;;7.10;88.23
73860;BME280;62197;51.632;13.700;2023-05-09T00:32:01;100978.22;;;7.19;88.23
73860;BME280;62197;51.632;13.700;2023-05-09T00:34:27;100974.84;;;7.17;87.07
73860;BME280;62197;51.632;13.700;2023-05-09T00:36:52;100975.44;;;7.12;87.48
73860;BME280;62197;51.632;13.700;2023-05-09T00:39:17;100972.06;;;7.04;87.95
73860;BME280;62197;51.632;13.700;2023-05-09T00:41:43;100970.97;;;6.92;88.48
73860;BME280;62197;51.632;13.700;2023-05-09T00:44:08;100971.63;;;7.00;88.10
73860;BME280;62197;51.632;13.700;2023-05-09T00:46:33;100968.03;;;7.00;87.10
73860;BME280;62197;51.632;13.700;2023-05-09T00:48:59;100974.34;;;6.94;87.86
73860;BME280;62197;51.632;13.700;2023-05-09T00:51:24;100971.38;;;6.95;87.83
73860;BME280;62197;51.632;13.700;2023-05-09T00:53:50;100968.81;;;6.87;88.24
73860;BME280;62197;51.632;13.700;2023-05-09T00:56:15;100969.25;;;6.84;88.31
73860;BME280;62197;51.632;13.700;2023-05-09T00:58:41;100959.94;;;6.79;88.52
73860;BME280;62197;51.632;13.700;2023-05-09T01:01:06;100967.31;;;6.78;88.36
73860;BME280;62197;51.632;13.700;2023-05-09T01:03:32;100974.69;;;6.71;88.16
73860;BME280;62197;51.632;13.700;2023-05-09T01:08:46;100960.16;;;6.77;87.85
73860;BME280;62197;51.632;13.700;2023-05-09T01:11:22;100961.84;;;6.78;87.36
73860;BME280;62197;51.632;13.700;2023-05-09T01:17:18;100964.31;;;6.67;87.66
73860;BME280;62197;51.632;13.700;2023-05-09T01:22:32;100958.16;;;6.58;88.56
73860;BME280;62197;51.632;13.700;2023-05-09T01:25:20;100952.66;;;6.58;88.62
73860;BME280;62197;51.632;13.700;2023-05-09T01:28:13;100958.78;;;6.60;87.93
73860;BME280;62197;51.632;13.700;2023-05-09T01:30:43;100950.75;;;6.52;88.44
73860;BME280;62197;51.632;13.700;2023-05-09T01:33:13;100952.44;;;6.53;88.11
73860;BME280;62197;51.632;13.700;2023-05-09T01:35:41;100955.59;;;6.50;88.28
73860;BME280;62197;51.632;13.700;2023-05-09T01:38:13;100952.59;;;6.45;88.41
73860;BME280;62197;51.632;13.700;2023-05-09T01:40:41;100949.16;;;6.30;88.88
73860;BME280;62197;51.632;13.700;2023-05-09T01:43:10;100947.00;;;6.25;89.52
73860;BME280;62197;51.632;13.700;2023-05-09T01:45:36;100937.91;;;6.18;89.56
73860;BME280;62197;51.632;13.700;2023-05-09T01:48:03;100940.59;;;6.12;90.75
73860;BME280;62197;51.632;13.700;2023-05-09T01:50:29;100942.88;;;6.02;90.75
73860;BME280;62197;51.632;13.700;2023-05-09T01:52:57;100941.81;;;6.03;90.99
73860;BME280;62197;51.632;13.700;2023-05-09T01:55:27;100940.94;;;5.96;91.56
73860;BME280;62197;51.632;13.700;2023-05-09T01:57:54;100934.81;;;5.94;91.52
73860;BME280;62197;51.632;13.700;2023-05-09T02:00:21;100935.84;;;5.93;92.10
73860;BME280;62197;51.632;13.700;2023-05-09T02:02:48;100931.00;;;5.88;92.24
73860;BME280;62197;51.632;13.700;2023-05-09T02:05:14;100929.84;;;5.83;92.32
73860;BME280;62197;51.632;13.700;2023-05-09T02:07:41;100933.72;;;5.88;92.72
73860;BME280;62197;51.632;13.700;2023-05-09T02:10:08;100928.41;;;5.87;92.38
73860;BME280;62197;51.632;13.700;2023-05-09T02:12:34;100935.53;;;5.81;93.09
73860;BME280;62197;51.632;13.700;2023-05-09T02:14:59;100936.13;;;5.77;93.09
73860;BME280;62197;51.632;13.700;2023-05-09T02:17:25;100931.94;;;5.81;92.61
73860;BME280;62197;51.632;13.700;2023-05-09T02:19:53;100930.66;;;5.77;92.05
73860;BME280;62197;51.632;13.700;2023-05-09T02:22:18;100930.38;;;5.72;93.19
73860;BME280;62197;51.632;13.700;2023-05-09T02:24:43;100936.31;;;5.75;92.65
73860;BME280;62197;51.632;13.700;2023-05-09T02:27:10;100929.53;;;5.71;92.30
73860;BME280;62197;51.632;13.700;2023-05-09T02:29:54;100935.63;;;5.67;92.83
73860;BME280;62197;51.632;13.700;2023-05-09T02:32:24;100928.44;;;5.66;93.25
73860;BME280;62197;51.632;13.700;2023-05-09T02:34:52;100930.81;;;5.69;92.80
73860;BME280;62197;51.632;13.700;2023-05-09T02:37:18;100931.84;;;5.68;93.19
73860;BME280;62197;51.632;13.700;2023-05-09T02:39:44;100923.75;;;5.60;94.05
73860;BME280;62197;51.632;13.700;2023-05-09T02:42:12;100935.66;;;5.73;93.07
73860;BME280;62197;51.632;13.700;2023-05-09T02:44:37;100921.72;;;5.68;92.86
73860;BME280;62197;51.632;13.700;2023-05-09T02:47:04;100924.16;;;5.57;93.54
73860;BME280;62197;51.632;13.700;2023-05-09T02:49:30;100923.72;;;5.53;94.14
73860;BME280;62197;51.632;13.700;2023-05-09T02:51:55;100915.50;;;5.53;93.67
73860;BME280;62197;51.632;13.700;2023-05-09T02:54:21;100914.91;;;5.58;94.17
73860;BME280;62197;51.632;13.700;2023-05-09T02:56:46;100910.81;;;5.47;94.51
73860;BME280;62197;51.632;13.700;2023-05-09T02:59:11;100916.94;;;5.49;95.20
73860;BME280;62197;51.632;13.700;2023-05-09T03:01:37;100921.97;;;5.45;95.38
73860;BME280;62197;51.632;13.700;2023-05-09T03:04:02;100912.19;;;5.36;96.04
73860;BME280;62197;51.632;13.700;2023-05-09T03:06:27;100920.16;;;5.31;96.37
73860;BME280;62197;51.632;13.700;2023-05-09T03:08:53;100912.97;;;5.30;96.26
73860;BME280;62197;51.632;13.700;2023-05-09T03:11:18;100914.69;;;5.31;96.74
73860;BME280;62197;51.632;13.700;2023-05-09T03:13:43;100908.31;;;5.24;96.96
73860;BME280;62197;51.632;13.700;2023-05-09T03:16:12;100906.16;;;5.20;97.23
73860;BME280;62197;51.632;13.700;2023-05-09T03:18:37;100916.44;;;5.18;98.11
73860;BME280;62197;51.632;13.700;2023-05-09T03:21:03;100908.25;;;5.18;97.77
73860;BME280;62197;51.632;13.700;2023-05-09T03:23:28;100912.84;;;5.17;98.17
73860;BME280;62197;51.632;13.700;2023-05-09T03:25:54;100906.38;;;5.18;98.42
73860;BME280;62197;51.632;13.700;2023-05-09T03:28:19;100906.16;;;5.20;97.82
73860;BME280;62197;51.632;13.700;2023-05-09T03:30:44;100902.56;;;5.19;98.43
73860;BME280;62197;51.632;13.700;2023-05-09T03:33:10;100911.19;;;5.16;98.16
73860;BME280;62197;51.632;13.700;2023-05-09T03:35:35;100904.78;;;5.09;98.42
73860;BME280;62197;51.632;13.700;2023-05-09T03:38:00;100908.56;;;5.08;98.17
73860;BME280;62197;51.632;13.700;2023-05-09T03:40:26;100912.34;;;5.07;98.64
73860;BME280;62197;51.632;13.700;2023-05-09T03:42:51;100910.25;;;5.09;98.21
73860;BME280;62197;51.632;13.700;2023-05-09T03:45:16;100911.56;;;5.13;98.49
73860;BME280;62197;51.632;13.700;2023-05-09T03:47:42;100910.72;;;5.13;98.55
73860;BME280;62197;51.632;13.700;2023-05-09T03:50:07;100906.75;;;5.15;98.62
73860;BME280;62197;51.632;13.700;2023-05-09T03:52:33;100908.44;;;5.16;98.35
73860;BME280;62197;51.632;13.700;2023-05-09T03:54:58;100917.19;;;5.26;98.13
73860;BME280;62197;51.632;13.700;2023-05-09T03:57:24;100917.44;;;5.31;97.09
73860;BME280;62197;51.632;13.700;2023-05-09T03:59:49;100906.72;;;5.36;97.10
73860;BME280;62197;51.632;13.700;2023-05-09T04:02:15;100914.34;;;5.41;97.82
73860;BME280;62197;51.632;13.700;2023-05-09T04:04:40;100920.91;;;5.46;97.83
73860;BME280;62197;51.632;13.700;2023-05-09T04:07:06;100914.53;;;5.61;96.60
73860;BME280;62197;51.632;13.700;2023-05-09T04:09:31;100910.94;;;5.60;96.73
73860;BME280;62197;51.632;13.700;2023-05-09T04:11:56;100913.28;;;5.63;96.53
73860;BME280;62197;51.632;13.700;2023-05-09T04:14:22;100916.06;;;5.70;96.37
73860;BME280;62197;51.632;13.700;2023-05-09T04:16:47;100915.91;;;5.78;96.79
73860;BME280;62197;51.632;13.700;2023-05-09T04:19:12;100918.00;;;5.76;96.54
73860;BME280;62197;51.632;13.700;2023-05-09T04:21:38;100924.00;;;5.86;96.12
73860;BME280;62197;51.632;13.700;2023-05-09T04:24:03;100919.63;;;5.91;95.30
73860;BME280;62197;51.632;13.700;2023-05-09T04:26:28;100911.44;;;5.98;95.48
73860;BME280;62197;51.632;13.700;2023-05-09T04:28:55;100917.00;;;6.11;94.62
73860;BME280;62197;51.632;13.700;2023-05-09T04:31:20;100911.09;;;6.14;95.57
73860;BME280;62197;51.632;13.700;2023-05-09T04:33:47;100910.50;;;6.18;95.64
73860;BME280;62197;51.632;13.700;2023-05-09T04:36:12;100906.53;;;6.21;93.93
73860;BME280;62197;51.632;13.700;2023-05-09T04:38:37;100914.16;;;6.32;93.57
73860;BME280;62197;51.632;13.700;2023-05-09T04:41:03;100904.50;;;6.36;93.11
73860;BME280;62197;51.632;13.700;2023-05-09T04:43:28;100902.22;;;6.46;92.45
73860;BME280;62197;51.632;13.700;2023-05-09T04:45:55;100905.44;;;6.56;91.48
73860;BME280;62197;51.632;13.700;2023-05-09T04:48:20;100909.66;;;6.59;91.97
73860;BME280;62197;51.632;13.700;2023-05-09T04:50:46;100912.22;;;6.67;91.37
73860;BME280;62197;51.632;13.700;2023-05-09T04:53:12;100910.97;;;6.69;90.96
73860;BME280;62197;51.632;13.700;2023-05-09T04:55:38;100914.38;;;6.84;88.96
73860;BME280;62197;51.632;13.700;2023-05-09T04:58:03;100911.44;;;6.92;89.10
73860;BME280;62197;51.632;13.700;2023-05-09T05:00:28;100916.28;;;6.97;89.25
73860;BME280;62197;51.632;13.700;2023-05-09T05:02:54;100907.69;;;7.06;87.90
73860;BME280;62197;51.632;13.700;2023-05-09T05:05:19;100906.44;;;7.15;88.47
73860;BME280;62197;51.632;13.700;2023-05-09T05:07:45;100900.75;;;7.23;87.52
73860;BME280;62197;51.632;13.700;2023-05-09T05:10:10;100910.25;;;7.34;86.70
73860;BME280;62197;51.632;13.700;2023-05-09T05:12:35;100907.72;;;7.39;86.07
73860;BME280;62197;51.632;13.700;2023-05-09T05:15:01;100902.25;;;7.52;85.14
73860;BME280;62197;51.632;13.700;2023-05-09T05:17:26;100908.97;;;7.63;85.26
73860;BME280;62197;51.632;13.700;2023-05-09T05:19:53;100896.31;;;7.75;84.53
73860;BME280;62197;51.632;13.700;2023-05-09T05:22:19;100898.38;;;7.86;84.41
73860;BME280;62197;51.632;13.700;2023-05-09T05:24:44;100900.50;;;7.97;83.52
73860;BME280;62197;51.632;13.700;2023-05-09T05:27:09;100889.06;;;8.06;83.26
73860;BME280;62197;51.632;13.700;2023-05-09T05:29:35;100896.00;;;8.22;82.22
73860;BME280;62197;51.632;13.700;2023-05-09T05:32:00;100890.72;;;8.27;81.99
73860;BME280;62197;51.632;13.700;2023-05-09T05:34:25;100891.34;;;8.36;81.80
73860;BME280;62197;51.632;13.700;2023-05-09T05:36:50;100886.44;;;8.44;80.49
73860;BME280;62197;51.632;13.700;2023-05-09T05:39:15;100883.84;;;8.56;79.86
73860;BME280;62197;51.632;13.700;2023-05-09T05:41:41;100883.19;;;8.67;79.11
73860;BME280;62197;51.632;13.700;2023-05-09T05:44:06;100883.31;;;8.78;79.50
73860;BME280;62197;51.632;13.700;2023-05-09T05:46:31;100879.88;;;8.89;79.09
73860;BME280;62197;51.632;13.700;2023-05-09T05:48:57;100877.50;;;8.93;77.98
73860;BME280;62197;51.632;13.700;2023-05-09T05:51:22;100884.41;;;9.08;78.66
73860;BME280;62197;51.632;13.700;2023-05-09T05:53:47;100887.91;;;9.22;77.55
73860;BME280;62197;51.632;13.700;2023-05-09T05:56:12;100877.66;;;9.36;75.60
73860;BME280;62197;51.632;13.700;2023-05-09T05:58:37;100855.66;;;9.29;74.80
73860;BME280;62197;51.632;13.700;2023-05-09T06:01:03;100871.31;;;9.60;75.86
73860;BME280;62197;51.632;13.700;2023-05-09T06:03:28;100869.09;;;9.68;75.98
73860;BME280;62197;51.632;13.700;2023-05-09T06:05:53;100860.50;;;9.83;73.51
73860;BME280;62197;51.632;13.700;2023-05-09T06:08:19;100865.72;;;9.91;72.26
73860;BME280;62197;51.632;13.700;2023-05-09T06:10:45;100865.81;;;10.02;71.92
73860;BME280;62197;51.632;13.700;2023-05-09T06:13:10;100858.03;;;10.18;71.55
73860;BME280;62197;51.632;13.700;2023-05-09T06:15:35;100858.72;;;10.31;70.78
73860;BME280;62197;51.632;13.700;2023-05-09T06:18:00;100851.81;;;10.40;68.82
73860;BME280;62197;51.632;13.700;2023-05-09T06:20:26;100851.63;;;10.53;67.29
73860;BME280;62197;51.632;13.700;2023-05-09T06:22:51;100846.03;;;10.60;65.95
73860;BME280;62197;51.632;13.700;2023-05-09T06:25:16;100857.50;;;10.75;63.82
73860;BME280;62197;51.632;13.700;2023-05-09T06:27:41;100852.41;;;10.90;63.89
73860;BME280;62197;51.632;13.700;2023-05-09T06:30:07;100853.53;;;11.01;62.57
73860;BME280;62197;51.632;13.700;2023-05-09T06:32:32;100852.38;;;11.20;64.95
73860;BME280;62197;51.632;13.700;2023-05-09T06:34:57;100849.69;;;11.54;60.31
73860;BME280;62197;51.632;13.700;2023-05-09T06:37:23;100845.03;;;11.78;60.42
73860;BME280;62197;51.632;13.700;2023-05-09T06:39:48;100848.28;;;12.10;58.06
73860;BME280;62197;51.632;13.700;2023-05-09T06:42:15;100844.44;;;12.11;57.54
73860;BME280;62197;51.632;13.700;2023-05-09T06:44:40;100838.66;;;12.01;55.87
73860;BME280;62197;51.632;13.700;2023-05-09T06:47:08;100828.56;;;11.95;57.54
73860;BME280;62197;51.632;13.700;2023-05-09T06:49:33;100824.13;;;11.82;56.39
73860;BME280;62197;51.632;13.700;2023-05-09T06:51:58;100825.56;;;11.73;55.38
73860;BME280;62197;51.632;13.700;2023-05-09T06:54:23;100822.06;;;11.89;56.32
73860;BME280;62197;51.632;13.700;2023-05-09T06:56:49;100823.16;;;11.88;56.39
73860;BME280;62197;51.632;13.700;2023-05-09T06:59:14;100822.06;;;12.01;54.74
73860;BME280;62197;51.632;13.700;2023-05-09T07:01:40;100816.78;;;11.99;54.91
73860;BME280;62197;51.632;13.700;2023-05-09T07:04:06;100813.88;;;12.17;54.84
73860;BME280;62197;51.632;13.700;2023-05-09T07:06:31;100805.06;;;12.20;53.40
73860;BME280;62197;51.632;13.700;2023-05-09T07:08:57;100806.50;;;12.34;53.40
73860;BME280;62197;51.632;13.700;2023-05-09T07:11:22;100800.66;;;12.47;55.18
73860;BME280;62197;51.632;13.700;2023-05-09T07:13:47;100794.63;;;12.50;53.81
73860;BME280;62197;51.632;13.700;2023-05-09T07:16:13;100800.75;;;12.52;53.47
73860;BME280;62197;51.632;13.700;2023-05-09T07:18:38;100796.03;;;12.64;53.19
73860;BME280;62197;51.632;13.700;2023-05-09T07:21:04;100800.47;;;12.65;52.93
73860;BME280;62197;51.632;13.700;2023-05-09T07:23:29;100794.34;;;12.63;52.75
73860;BME280;62197;51.632;13.700;2023-05-09T07:25:56;100784.22;;;12.69;51.33
73860;BME280;62197;51.632;13.700;2023-05-09T07:28:21;100778.03;;;12.79;51.64
73860;BME280;62197;51.632;13.700;2023-05-09T07:30:47;100773.91;;;12.81;50.77
73860;BME280;62197;51.632;13.700;2023-05-09T07:33:12;100778.81;;;12.91;51.24
73860;BME280;62197;51.632;13.700;2023-05-09T07:35:37;100765.78;;;12.91;51.21
73860;BME280;62197;51.632;13.700;2023-05-09T07:38:02;100772.97;;;13.04;51.17
73860;BME280;62197;51.632;13.700;2023-05-09T07:40:30;100767.03;;;13.12;51.36
73860;BME280;62197;51.632;13.700;2023-05-09T07:42:55;100762.16;;;13.19;50.36
73860;BME280;62197;51.632;13.700;2023-05-09T07:45:21;100754.41;;;13.21;50.04
73860;BME280;62197;51.632;13.700;2023-05-09T07:47:46;100754.16;;;13.22;49.14
73860;BME280;62197;51.632;13.700;2023-05-09T07:50:11;100751.56;;;13.32;49.21
73860;BME280;62197;51.632;13.700;2023-05-09T07:52:37;100741.97;;;13.40;49.27
73860;BME280;62197;51.632;13.700;2023-05-09T07:55:02;100737.72;;;13.49;48.36
73860;BME280;62197;51.632;13.700;2023-05-09T07:57:28;100731.38;;;13.53;47.58
73860;BME280;62197;51.632;13.700;2023-05-09T07:59:53;100719.97;;;13.50;47.16
73860;BME280;62197;51.632;13.700;2023-05-09T08:02:18;100721.78;;;13.61;47.29
73860;BME280;62197;51.632;13.700;2023-05-09T08:04:44;100732.75;;;13.73;47.35
73860;BME280;62197;51.632;13.700;2023-05-09T08:07:12;100726.06;;;13.90;46.01
73860;BME280;62197;51.632;13.700;2023-05-09T08:09:38;100723.16;;;13.80;46.26
73860;BME280;62197;51.632;13.700;2023-05-09T08:12:03;100718.97;;;13.78;45.61
73860;BME280;62197;51.632;13.700;2023-05-09T08:14:29;100708.50;;;14.01;45.67
73860;BME280;62197;51.632;13.700;2023-05-09T08:16:54;100710.91;;;14.19;45.51
73860;BME280;62197;51.632;13.700;2023-05-09T08:19:19;100705.91;;;14.16;45.11
73860;BME280;62197;51.632;13.700;2023-05-09T08:21:47;100705.94;;;14.21;44.33
73860;BME280;62197;51.632;13.700;2023-05-09T08:24:13;100704.84;;;14.22;45.18
73860;BME280;62197;51.632;13.700;2023-05-09T08:26:38;100711.97;;;14.35;44.77
73860;BME280;62197;51.632;13.700;2023-05-09T08:29:03;100717.38;;;14.46;44.59
73860;BME280;62197;51.632;13.700;2023-05-09T08:31:29;100694.56;;;14.44;44.07
73860;BME280;62197;51.632;13.700;2023-05-09T08:33:54;100700.66;;;14.68;43.75
73860;BME280;62197;51.632;13.700;2023-05-09T08:36:19;100698.19;;;14.72;43.71
73860;BME280;62197;51.632;13.700;2023-05-09T08:38:45;100693.34;;;14.89;43.71
73860;BME280;62197;51.632;13.700;2023-05-09T08:41:10;100690.66;;;14.99;43.83
73860;BME280;62197;51.632;13.700;2023-05-09T08:43:37;100700.13;;;15.03;43.28
73860;BME280;62197;51.632;13.700;2023-05-09T08:46:09;100699.09;;;15.09;42.80
73860;BME280;62197;51.632;13.700;2023-05-09T08:48:35;100697.38;;;15.08;41.75
73860;BME280;62197;51.632;13.700;2023-05-09T08:51:05;100681.38;;;15.20;42.82
73860;BME280;62197;51.632;13.700;2023-05-09T08:53:31;100685.28;;;15.24;41.67
73860;BME280;62197;51.632;13.700;2023-05-09T08:55:59;100683.44;;;15.34;42.23
73860;BME280;62197;51.632;13.700;2023-05-09T08:58:26;100671.84;;;15.43;41.77
73860;BME280;62197;51.632;13.700;2023-05-09T09:00:52;100674.94;;;15.46;40.41
73860;BME280;62197;51.632;13.700;2023-05-09T09:03:19;100670.06;;;15.31;42.35
73860;BME280;62197;51.632;13.700;2023-05-09T09:05:45;100673.09;;;15.30;40.49
73860;BME280;62197;51.632;13.700;2023-05-09T09:08:13;100654.06;;;15.49;40.14
73860;BME280;62197;51.632;13.700;2023-05-09T09:10:40;100654.09;;;15.54;40.45
73860;BME280;62197;51.632;13.700;2023-05-09T09:13:12;100651.38;;;15.64;41.24
73860;BME280;62197;51.632;13.700;2023-05-09T09:15:39;100654.53;;;15.82;41.08
73860;BME280;62197;51.632;13.700;2023-05-09T09:18:07;100652.34;;;15.94;40.67
73860;BME280;62197;51.632;13.700;2023-05-09T09:20:36;100656.75;;;15.80;42.37
73860;BME280;62197;51.632;13.700;2023-05-09T09:23:08;100655.09;;;15.79;43.08
73860;BME280;62197;51.632;13.700;2023-05-09T09:25:35;100656.00;;;16.00;40.58
73860;BME280;62197;51.632;13.700;2023-05-09T09:28:00;100664.09;;;16.06;39.48
73860;BME280;62197;51.632;13.700;2023-05-09T09:30:25;100669.09;;;16.04;38.16
73860;BME280;62197;51.632;13.700;2023-05-09T09:32:51;100664.13;;;16.11;39.80
73860;BME280;62197;51.632;13.700;2023-05-09T09:35:16;100662.75;;;16.14;41.89
73860;BME280;62197;51.632;13.700;2023-05-09T09:37:42;100649.66;;;16.19;41.93
73860;BME280;62197;51.632;13.700;2023-05-09T09:40:09;100655.59;;;16.43;42.17
73860;BME280;62197;51.632;13.700;2023-05-09T09:42:41;100655.84;;;16.47;42.13
73860;BME280;62197;51.632;13.700;2023-05-09T09:45:11;100643.59;;;16.43;41.42
73860;BME280;62197;51.632;13.700;2023-05-09T09:47:37;100649.44;;;16.46;39.62
73860;BME280;62197;51.632;13.700;2023-05-09T09:50:10;100636.13;;;16.58;38.03
73860;BME280;62197;51.632;13.700;2023-05-09T09:55:08;100643.13;;;16.86;39.94
73860;BME280;62197;51.632;13.700;2023-05-09T09:57:35;100637.53;;;16.76;39.89
73860;BME280;62197;51.632;13.700;2023-05-09T10:00:02;100633.63;;;16.77;40.37
73860;BME280;62197;51.632;13.700;2023-05-09T10:02:27;100619.69;;;16.92;40.83
73860;BME280;62197;51.632;13.700;2023-05-09T10:04:53;100627.78;;;16.93;39.54
73860;BME280;62197;51.632;13.700;2023-05-09T10:07:21;100620.81;;;17.01;39.35
73860;BME280;62197;51.632;13.700;2023-05-09T10:09:47;100625.81;;;16.94;39.80
73860;BME280;62197;51.632;13.700;2023-05-09T10:12:13;100635.88;;;16.95;39.46
73860;BME280;62197;51.632;13.700;2023-05-09T10:14:43;100619.13;;;17.05;40.03
73860;BME280;62197;51.632;13.700;2023-05-09T10:17:10;100620.25;;;16.99;39.26
73860;BME280;62197;51.632;13.700;2023-05-09T10:19:41;100620.22;;;17.04;37.35
73860;BME280;62197;51.632;13.700;2023-05-09T10:22:09;100620.22;;;17.19;37.19
73860;BME280;62197;51.632;13.700;2023-05-09T10:24:42;100612.66;;;17.30;34.70
73860;BME280;62197;51.632;13.700;2023-05-09T10:27:10;100588.72;;;17.13;35.89
73860;BME280;62197;51.632;13.700;2023-05-09T10:29:40;100600.06;;;17.52;36.45
73860;BME280;62197;51.632;13.700;2023-05-09T10:32:16;100600.06;;;17.47;35.43
73860;BME280;62197;51.632;13.700;2023-05-09T10:34:47;100582.22;;;17.43;33.79
73860;BME280;62197;51.632;13.700;2023-05-09T10:37:14;100600.00;;;17.67;34.45
73860;BME280;62197;51.632;13.700;2023-05-09T10:39:40;100600.78;;;17.88;34.90
73860;BME280;62197;51.632;13.700;2023-05-09T10:42:06;100599.66;;;17.94;34.11
73860;BME280;62197;51.632;13.700;2023-05-09T10:44:32;100589.78;;;18.07;34.74
73860;BME280;62197;51.632;13.700;2023-05-09T10:46:58;100586.47;;;17.99;34.10
73860;BME280;62197;51.632;13.700;2023-05-09T10:49:24;100572.44;;;18.15;34.12
73860;BME280;62197;51.632;13.700;2023-05-09T10:51:50;100575.72;;;18.27;34.22
73860;BME280;62197;51.632;13.700;2023-05-09T10:54:26;100583.47;;;18.35;34.43
73860;BME280;62197;51.632;13.700;2023-05-09T10:56:52;100576.81;;;18.98;33.88
73860;BME280;62197;51.632;13.700;2023-05-09T10:59:38;100573.94;;;19.60;32.30
73860;BME280;62197;51.632;13.700;2023-05-09T11:02:05;100565.78;;;20.25;30.74
73860;BME280;62197;51.632;13.700;2023-05-09T11:04:37;100564.91;;;20.80;29.88
73860;BME280;62197;51.632;13.700;2023-05-09T11:07:06;100543.66;;;21.52;28.66
73860;BME280;62197;51.632;13.700;2023-05-09T11:09:52;100538.63;;;21.49;28.23
73860;BME280;62197;51.632;13.700;2023-05-09T11:12:30;100543.13;;;21.77;28.92
73860;BME280;62197;51.632;13.700;2023-05-09T11:15:03;100553.84;;;21.62;28.04
73860;BME280;62197;51.632;13.700;2023-05-09T11:17:29;100541.97;;;21.92;28.02
73860;BME280;62197;51.632;13.700;2023-05-09T11:19:58;100537.88;;;22.47;27.63
73860;BME280;62197;51.632;13.700;2023-05-09T11:22:40;100537.31;;;22.81;26.71
73860;BME280;62197;51.632;13.700;2023-05-09T11:25:11;100520.16;;;23.21;25.95
73860;BME280;62197;51.632;13.700;2023-05-09T11:27:38;100521.56;;;23.33;25.83
73860;BME280;62197;51.632;13.700;2023-05-09T11:30:05;100512.41;;;22.96;26.01
73860;BME280;62197;51.632;13.700;2023-05-09T11:32:33;100508.78;;;23.83;26.25
73860;BME280;62197;51.632;13.700;2023-05-09T11:35:09;100499.59;;;24.68;25.31
73860;BME280;62197;51.632;13.700;2023-05-09T11:37:45;100486.03;;;25.08;24.65
73860;BME280;62197;51.632;13.700;2023-05-09T11:40:13;100486.50;;;24.03;26.27
73860;BME280;62197;51.632;13.700;2023-05-09T11:42:43;100485.50;;;24.25;25.23
73860;BME280;62197;51.632;13.700;2023-05-09T11:45:10;100480.34;;;24.44;25.26
73860;BME280;62197;51.632;13.700;2023-05-09T11:47:36;100477.69;;;24.39;24.43
73860;BME280;62197;51.632;13.700;2023-05-09T11:50:04;100478.41;;;23.54;24.91
73860;BME280;62197;51.632;13.700;2023-05-09T11:52:31;100451.47;;;24.47;25.33
73860;BME280;62197;51.632;13.700;2023-05-09T11:54:58;100461.06;;;24.80;24.43
73860;BME280;62197;51.632;13.700;2023-05-09T11:57:23;100459.34;;;25.72;23.97
73860;BME280;62197;51.632;13.700;2023-05-09T11:59:49;100458.44;;;24.58;24.10
73860;BME280;62197;51.632;13.700;2023-05-09T12:02:14;100446.16;;;24.37;24.30
73860;BME280;62197;51.632;13.700;2023-05-09T12:04:39;100450.72;;;25.39;24.25
73860;BME280;62197;51.632;13.700;2023-05-09T12:07:05;100441.63;;;26.04;23.35
73860;BME280;62197;51.632;13.700;2023-05-09T12:09:32;100441.03;;;26.40;22.07
73860;BME280;62197;51.632;13.700;2023-05-09T12:11:58;100427.63;;;25.66;23.40
73860;BME280;62197;51.632;13.700;2023-05-09T12:14:31;100433.06;;;25.71;22.24
73860;BME280;62197;51.632;13.700;2023-05-09T12:16:57;100427.00;;;25.61;23.24
73860;BME280;62197;51.632;13.700;2023-05-09T12:19:24;100420.91;;;25.71;22.58
73860;BME280;62197;51.632;13.700;2023-05-09T12:21:57;100420.72;;;25.76;22.47
73860;BME280;62197;51.632;13.700;2023-05-09T12:24:23;100424.53;;;26.21;22.68
73860;BME280;62197;51.632;13.700;2023-05-09T12:26:50;100416.06;;;26.99;21.42
73860;BME280;62197;51.632;13.700;2023-05-09T12:29:16;100422.78;;;26.29;22.60
73860;BME280;62197;51.632;13.700;2023-05-09T12:31:42;100415.50;;;27.17;22.30
73860;BME280;62197;51.632;13.700;2023-05-09T12:34:08;100416.78;;;27.20;22.49
73860;BME280;62197;51.632;13.700;2023-05-09T12:36:36;100408.97;;;26.81;22.56
73860;BME280;62197;51.632;13.700;2023-05-09T12:39:02;100406.03;;;26.77;21.66
73860;BME280;62197;51.632;13.700;2023-05-09T12:41:31;100395.22;;;26.05;22.37
73860;BME280;62197;51.632;13.700;2023-05-09T12:43:57;100401.28;;;25.95;22.95
73860;BME280;62197;51.632;13.700;2023-05-09T12:46:22;100402.25;;;26.20;22.64
73860;BME280;62197;51.632;13.700;2023-05-09T12:48:48;100395.44;;;26.98;22.02
73860;BME280;62197;51.632;13.700;2023-05-09T12:51:18;100388.22;;;27.13;20.77
73860;BME280;62197;51.632;13.700;2023-05-09T12:53:46;100381.63;;;27.45;21.21